Time;durP1;ratioP1;P1;durP2;ratioP2;P2;SDS_P1;SDS_P2;PMS_P1;PMS_P2;Temp;Humidity;BMP_temperature;BMP_pressure;BME280_temperature;BME280_humidity;BME280_pressure;Samples;Min_cycle;Max_cycle;Signal;HPM_P1;HPM_P2
2022/05/23 00:01:19;;;;;;;3.42;1.15;;;;;;;17.37;38.85;95828.31;5113883;28;20529;-63
2022/05/23 00:03:45;;;;;;;2.00;1.10;;;;;;;17.35;39.46;95823.16;5114097;28;20504;-62
2022/05/23 00:06:20;;;;;;;1.35;0.90;;;;;;;17.30;39.08;95828.78;5113961;28;20051;-63
2022/05/23 00:08:46;;;;;;;1.42;1.05;;;;;;;17.36;39.15;95831.91;5114047;28;20358;-63
2022/05/23 00:11:12;;;;;;;2.95;1.20;;;;;;;17.38;39.22;95832.63;5113827;28;20418;-61
2022/05/23 00:13:38;;;;;;;3.88;1.25;;;;;;;17.32;39.28;95825.16;5113766;28;20106;-62
2022/05/23 00:16:04;;;;;;;5.50;1.00;;;;;;;17.38;39.08;95824.72;5113739;28;20019;-63
2022/05/23 00:18:30;;;;;;;2.13;0.93;;;;;;;17.39;39.16;95826.38;5113808;28;20015;-61
2022/05/23 00:20:55;;;;;;;5.95;1.00;;;;;;;17.35;39.32;95827.59;5113679;28;20027;-63
2022/05/23 00:23:22;;;;;;;1.63;1.17;;;;;;;17.36;39.16;95830.09;5113652;28;20073;-63
2022/05/23 00:25:49;;;;;;;6.53;1.00;;;;;;;17.37;39.16;95837.06;5113661;28;20028;-61
2022/05/23 00:28:15;;;;;;;4.65;1.02;;;;;;;17.33;39.64;95840.91;5113122;28;20023;-63
2022/05/23 00:30:41;;;;;;;3.40;1.00;;;;;;;17.32;39.59;95847.16;5113380;28;20051;-60
2022/05/23 00:35:54;;;;;;;4.95;1.20;;;;;;;17.36;39.43;95855.69;5113885;28;20070;-62
2022/05/23 00:38:21;;;;;;;5.50;1.27;;;;;;;17.32;39.63;95860.38;5113577;28;20028;-61
2022/05/23 00:43:52;;;;;;;3.72;1.38;;;;;;;17.08;40.05;95844.56;5113518;28;20516;-63
2022/05/23 00:46:17;;;;;;;2.90;1.20;;;;;;;16.99;40.43;95848.72;5113500;28;20032;-63
2022/05/23 00:48:43;;;;;;;9.98;1.15;;;;;;;16.92;40.91;95846.53;5113455;28;20071;-62
2022/05/23 00:51:15;;;;;;;4.90;1.30;;;;;;;16.86;41.04;95846.16;5113348;28;20027;-62
2022/05/23 00:53:52;;;;;;;5.28;1.30;;;;;;;16.80;41.16;95853.59;5113453;28;20081;-61
2022/05/23 00:56:21;;;;;;;6.88;1.27;;;;;;;16.68;41.32;95844.78;5113526;28;20529;-60
2022/05/23 00:58:50;;;;;;;4.18;1.95;;;;;;;16.62;41.52;95845.22;5113507;28;20031;-61
2022/05/23 01:01:20;;;;;;;2.08;1.35;;;;;;;16.63;41.74;95844.28;5113260;28;20028;-63
2022/05/23 01:03:46;;;;;;;2.50;1.10;;;;;;;16.58;42.22;95842.94;5113391;28;20020;-64
2022/05/23 01:06:12;;;;;;;1.85;1.20;;;;;;;16.52;42.24;95852.13;5113348;28;20035;-62
2022/05/23 01:08:40;;;;;;;3.88;1.30;;;;;;;16.49;41.68;95849.72;5113281;28;20027;-60
2022/05/23 01:11:07;;;;;;;1.25;0.80;;;;;;;16.52;42.03;95860.03;5113194;28;20031;-60
2022/05/23 01:13:33;;;;;;;3.00;1.63;;;;;;;16.51;42.65;95855.72;5113089;28;20023;-62
2022/05/23 01:15:59;;;;;;;2.75;1.35;;;;;;;16.53;42.21;95852.00;5113150;28;20031;-61
2022/05/23 01:18:26;;;;;;;3.17;1.20;;;;;;;16.52;42.70;95847.69;5113272;28;20020;-63
2022/05/23 01:20:57;;;;;;;2.70;1.00;;;;;;;16.58;42.10;95845.59;5113215;28;20164;-62
2022/05/23 01:23:43;;;;;;;1.40;1.00;;;;;;;16.53;42.49;95848.56;5113239;28;20027;-62
2022/05/23 01:26:08;;;;;;;2.90;1.15;;;;;;;16.57;42.77;95850.00;5113251;28;20020;-63
2022/05/23 01:28:39;;;;;;;3.95;1.20;;;;;;;16.57;42.74;95849.16;5112991;28;20032;-63
2022/05/23 01:31:05;;;;;;;;;;;;;;;16.57;42.62;95846.50;5113245;28;20446;-63
2022/05/23 01:33:31;;;;;;;1.40;1.20;;;;;;;16.55;42.91;95859.81;5113052;28;19919;-61
2022/05/23 01:35:57;;;;;;;6.15;1.50;;;;;;;16.57;42.98;95851.78;5113078;28;20350;-63
2022/05/23 01:38:24;;;;;;;2.17;1.08;;;;;;;16.57;43.00;95852.66;5113052;28;20028;-62
2022/05/23 01:40:50;;;;;;;4.70;1.10;;;;;;;16.62;42.98;95860.22;5114561;28;20016;-64
2022/05/23 01:43:16;;;;;;;2.95;1.50;;;;;;;16.59;43.12;95852.53;5116719;28;20031;-63
2022/05/23 01:45:42;;;;;;;2.15;1.10;;;;;;;16.45;44.30;95846.47;5116764;27;20072;-61
2022/05/23 01:48:08;;;;;;;2.22;1.00;;;;;;;16.42;44.37;95846.69;5116497;28;20473;-61
2022/05/23 01:50:34;;;;;;;4.88;1.50;;;;;;;16.24;44.25;95844.44;5116468;28;20016;-61
2022/05/23 01:53:00;;;;;;;6.03;1.40;;;;;;;16.25;45.25;95846.13;5116456;28;20020;-64
2022/05/23 01:55:26;;;;;;;6.55;1.50;;;;;;;16.22;45.99;95846.34;5116455;28;20055;-63
2022/05/23 01:57:52;;;;;;;4.32;1.35;;;;;;;16.14;46.35;95846.06;5116437;28;20045;-64
2022/05/23 02:03:03;;;;;;;2.22;1.30;;;;;;;15.70;46.88;95838.50;5116564;28;20065;-63
2022/05/23 02:05:30;;;;;;;6.25;1.10;;;;;;;15.52;47.35;95843.25;5116323;27;20016;-62
2022/05/23 02:07:56;;;;;;;3.05;1.45;;;;;;;15.43;47.88;95841.25;5116383;28;20384;-61
2022/05/23 02:10:23;;;;;;;5.28;1.30;;;;;;;15.35;49.29;95841.81;5116200;28;20019;-61
2022/05/23 02:12:49;;;;;;;1.50;1.20;;;;;;;15.20;49.08;95841.06;5116068;28;20490;-61
2022/05/23 02:15:17;;;;;;;2.47;1.23;;;;;;;15.12;49.61;95841.56;5115978;28;20039;-61
2022/05/23 02:17:42;;;;;;;1.70;1.25;;;;;;;15.05;50.71;95848.19;5115948;28;20015;-62
2022/05/23 02:20:09;;;;;;;3.03;1.52;;;;;;;14.84;51.10;95843.44;5115968;28;20084;-62
2022/05/23 02:22:35;;;;;;;2.15;1.30;;;;;;;14.72;51.42;95856.41;5115741;28;20427;-61
2022/05/23 02:25:01;;;;;;;3.60;1.33;;;;;;;14.49;52.25;95840.34;5115996;28;20027;-63
2022/05/23 02:27:28;;;;;;;3.17;1.02;;;;;;;14.36;52.86;95837.66;5115782;28;20108;-63
2022/05/23 02:29:53;;;;;;;2.20;1.33;;;;;;;14.28;52.35;95839.94;5115566;28;20026;-61
2022/05/23 02:32:19;;;;;;;7.13;1.55;;;;;;;14.22;51.87;95835.06;5115788;28;20020;-61
2022/05/23 02:34:44;;;;;;;2.33;0.90;;;;;;;14.29;51.49;95831.09;5115614;28;20358;-64
2022/05/23 02:37:11;;;;;;;6.60;1.48;;;;;;;14.30;51.18;95837.22;5115565;28;20027;-63
2022/05/23 02:39:36;;;;;;;1.80;1.20;;;;;;;14.39;50.53;95832.19;5115565;28;20478;-61
2022/05/23 02:42:03;;;;;;;2.20;1.60;;;;;;;14.48;50.84;95836.00;5115525;28;20027;-61
2022/05/23 02:44:28;;;;;;;2.47;1.40;;;;;;;14.50;50.93;95834.13;5115629;28;20024;-64
2022/05/23 02:46:55;;;;;;;2.33;1.30;;;;;;;14.49;51.21;95829.81;5115463;28;20066;-62
2022/05/23 02:49:21;;;;;;;1.63;1.33;;;;;;;14.46;51.72;95830.03;5115358;28;20028;-62
2022/05/23 02:51:47;;;;;;;3.80;1.60;;;;;;;14.52;51.10;95840.16;5114883;28;20015;-60
2022/05/23 02:54:13;;;;;;;3.53;1.27;;;;;;;14.52;51.87;95837.53;5115415;28;20116;-63
2022/05/23 02:56:39;;;;;;;3.00;1.25;;;;;;;14.51;52.49;95843.72;5115350;28;20059;-64
2022/05/23 02:59:05;;;;;;;1.92;1.50;;;;;;;14.40;52.07;95847.06;5115432;28;20051;-63
2022/05/23 03:01:31;;;;;;;1.58;1.20;;;;;;;14.28;52.41;95837.31;5115149;28;20035;-60
2022/05/23 03:03:56;;;;;;;3.97;1.30;;;;;;;14.19;52.86;95845.78;5115032;28;20084;-62
2022/05/23 03:06:22;;;;;;;5.72;1.92;;;;;;;14.11;53.40;95844.50;5115054;28;20058;-61
2022/05/23 03:08:48;;;;;;;3.15;1.23;;;;;;;14.02;53.50;95847.69;5114971;28;20023;-63
2022/05/23 03:11:14;;;;;;;4.05;1.70;;;;;;;13.94;53.83;95849.97;5115083;28;20019;-63
2022/05/23 03:13:39;;;;;;;3.28;1.33;;;;;;;13.91;54.08;95858.91;5114868;28;20054;-63
2022/05/23 03:16:12;;;;;;;1.52;1.20;;;;;;;13.75;55.07;95859.00;5114947;28;20031;-60
2022/05/23 03:18:38;;;;;;;2.92;1.35;;;;;;;13.63;55.38;95865.84;5114841;28;20019;-63
2022/05/23 03:21:07;;;;;;;4.40;1.40;;;;;;;13.54;55.86;95872.50;5114756;28;20033;-63
2022/05/23 03:29:07;;;;;;;1.90;1.52;;;;;;;13.62;56.06;95867.66;5114711;28;20449;-62
2022/05/23 03:31:33;;;;;;;3.33;1.75;;;;;;;13.62;56.21;95879.94;5114449;28;20126;-63
2022/05/23 03:33:59;;;;;;;4.38;1.50;;;;;;;13.67;56.46;95871.78;5114465;28;20027;-63
2022/05/23 03:36:25;;;;;;;1.45;1.27;;;;;;;13.76;56.64;95876.47;5114472;28;20027;-60
2022/05/23 03:38:51;;;;;;;2.88;1.40;;;;;;;13.93;56.61;95877.22;5114385;28;20026;-63
2022/05/23 03:41:17;;;;;;;2.42;1.42;;;;;;;14.18;55.78;95870.41;5114281;28;20024;-62
2022/05/23 03:43:43;;;;;;;4.05;1.10;;;;;;;14.47;55.47;95872.94;5114247;28;20023;-63
2022/05/23 03:46:12;;;;;;;1.73;1.48;;;;;;;14.90;54.96;95880.72;5114515;28;20095;-61
2022/05/23 03:48:39;;;;;;;6.13;1.40;;;;;;;15.35;54.70;95878.69;5114433;28;20430;-62
2022/05/23 03:51:06;;;;;;;1.67;1.13;;;;;;;15.85;53.45;95883.19;5114177;28;20500;-61
2022/05/23 03:53:32;;;;;;;5.03;1.30;;;;;;;16.40;52.76;95882.91;5114144;28;20016;-61
2022/05/23 03:55:59;;;;;;;5.47;1.08;;;;;;;16.93;52.56;95887.88;5114221;28;20019;-60
2022/05/23 03:58:26;;;;;;;1.48;1.10;;;;;;;17.36;50.47;95882.13;5114085;28;20028;-63
2022/05/23 04:01:13;;;;;;;3.28;1.45;;;;;;;17.78;49.42;95882.44;5113957;28;20058;-60
2022/05/23 04:03:40;;;;;;;2.30;1.30;;;;;;;18.14;48.92;95881.47;5113498;28;20484;-62
2022/05/23 04:06:05;;;;;;;3.28;1.17;;;;;;;18.54;48.08;95888.88;5113929;28;20027;-61
2022/05/23 04:08:31;;;;;;;2.67;1.27;;;;;;;18.91;46.28;95877.06;5113926;28;20031;-60
2022/05/23 04:10:57;;;;;;;1.60;1.20;;;;;;;19.19;45.83;95887.25;5113806;28;20111;-62
2022/05/23 04:13:23;;;;;;;2.30;1.40;;;;;;;19.57;45.69;95877.03;5113862;28;20042;-61
2022/05/23 04:15:49;;;;;;;2.17;1.10;;;;;;;19.93;44.48;95877.47;5113699;28;20031;-62
2022/05/23 04:18:15;;;;;;;3.72;1.25;;;;;;;20.28;44.87;95867.44;5112583;28;20024;-61
2022/05/23 04:20:41;;;;;;;3.47;1.27;;;;;;;20.57;43.53;95876.44;5113801;28;20515;-61
2022/05/23 04:23:08;;;;;;;1.92;1.13;;;;;;;20.90;43.03;95868.25;5113716;28;20019;-60
2022/05/23 04:25:40;;;;;;;5.70;1.48;;;;;;;21.17;41.55;95872.03;5113575;28;20026;-63
2022/05/23 04:28:06;;;;;;;3.63;1.40;;;;;;;21.48;38.73;95866.53;5113662;28;20035;-63
2022/05/23 04:30:32;;;;;;;1.60;1.00;;;;;;;21.72;40.68;95873.19;5113415;28;20036;-60
2022/05/23 04:35:44;;;;;;;2.88;1.20;;;;;;;22.07;39.61;95862.88;5113597;28;20386;-62
2022/05/23 04:38:11;;;;;;;1.70;1.13;;;;;;;22.26;38.35;95874.41;5113584;28;20024;-61
2022/05/23 04:40:37;;;;;;;7.13;1.30;;;;;;;22.44;39.01;95867.31;5113423;28;20050;-61
2022/05/23 04:43:03;;;;;;;2.58;1.27;;;;;;;22.49;36.18;95863.34;5113478;28;20028;-61
2022/05/23 04:45:30;;;;;;;1.50;1.20;;;;;;;22.64;38.63;95869.03;5113504;28;20035;-61
2022/05/23 04:50:40;;;;;;;2.38;1.38;;;;;;;22.64;35.69;95875.22;5113854;28;20499;-61
2022/05/23 04:53:06;;;;;;;1.50;1.40;;;;;;;22.70;36.09;95866.59;5113419;28;20102;-62
2022/05/23 04:55:33;;;;;;;4.50;1.40;;;;;;;22.84;37.72;95867.06;5113494;28;20122;-61
2022/05/23 04:57:59;;;;;;;2.58;1.42;;;;;;;22.97;36.80;95874.69;5113281;28;20385;-61
2022/05/23 05:00:29;;;;;;;2.28;1.30;;;;;;;23.03;37.43;95876.72;5113332;28;20028;-62
2022/05/23 05:02:59;;;;;;;1.67;1.13;;;;;;;23.33;37.21;95871.16;5113337;28;20127;-62
2022/05/23 05:05:26;;;;;;;4.43;1.63;;;;;;;23.59;36.12;95871.22;5113318;28;20252;-61
2022/05/23 05:07:51;;;;;;;2.97;1.33;;;;;;;23.48;35.98;95864.28;5113337;28;20447;-61
2022/05/23 05:10:20;;;;;;;7.38;1.35;;;;;;;23.25;35.56;95863.94;5113258;28;20026;-61
2022/05/23 05:12:46;;;;;;;6.05;1.25;;;;;;;23.28;35.36;95871.63;5113246;28;20034;-62
2022/05/23 05:15:11;;;;;;;3.25;1.40;;;;;;;23.44;36.29;95868.28;5115558;28;20020;-62
2022/05/23 05:17:37;;;;;;;4.15;1.38;;;;;;;23.76;35.03;95868.66;5117229;28;20028;-60
2022/05/23 05:20:03;;;;;;;6.43;1.45;;;;;;;23.99;34.95;95870.78;5117155;28;20427;-60
2022/05/23 05:22:29;;;;;;;4.78;1.17;;;;;;;23.99;35.83;95865.44;5117045;28;20067;-61
2022/05/23 05:24:54;;;;;;;2.25;1.40;;;;;;;23.85;35.27;95870.38;5117002;28;20040;-60
2022/05/23 05:27:20;;;;;;;12.38;1.50;;;;;;;23.95;35.10;95872.06;5117014;28;20027;-61
2022/05/23 05:29:46;;;;;;;2.53;1.17;;;;;;;24.16;35.06;95871.72;5117204;28;20024;-61
2022/05/23 05:32:26;;;;;;;5.82;1.33;;;;;;;24.07;33.30;95862.81;5116737;28;20050;-62
2022/05/23 05:34:59;;;;;;;4.30;1.15;;;;;;;23.92;34.24;95859.88;5115683;28;20118;-62
2022/05/23 05:37:30;;;;;;;3.05;1.85;;;;;;;24.17;33.58;95854.69;5116878;28;20024;-61
2022/05/23 05:40:02;;;;;;;2.80;1.35;;;;;;;24.66;36.33;95858.53;5116741;28;20457;-62
2022/05/23 05:42:42;;;;;;;2.67;1.17;;;;;;;25.07;33.98;95852.41;5115467;28;20036;-61
2022/05/23 05:45:13;;;;;;;5.50;1.23;;;;;;;25.20;32.44;95851.09;5116752;28;20473;-62
2022/05/23 05:47:42;;;;;;;3.35;1.23;;;;;;;25.52;34.82;95857.41;5116652;28;20027;-60
2022/05/23 05:50:19;;;;;;;5.53;1.58;;;;;;;25.95;29.36;95865.22;5116516;27;20477;-61
2022/05/23 05:52:46;;;;;;;3.58;1.13;;;;;;;26.40;30.86;95856.72;5116645;28;20024;-61
2022/05/23 05:55:13;;;;;;;2.83;1.25;;;;;;;26.72;30.88;95860.22;5116527;28;20030;-61
2022/05/23 05:57:39;;;;;;;2.63;1.10;;;;;;;26.83;30.19;95860.84;5115129;28;20092;-60
2022/05/23 06:00:06;;;;;;;4.13;1.40;;;;;;;26.77;30.12;95864.22;5115837;28;20455;-60
2022/05/23 06:02:33;;;;;;;6.03;1.20;;;;;;;27.04;28.30;95862.06;5116274;28;20032;-62
2022/05/23 06:04:58;;;;;;;2.88;1.13;;;;;;;26.98;27.31;95860.94;5116334;28;20030;-61
2022/05/23 06:12:58;;;;;;;2.20;1.20;;;;;;;27.57;27.14;95859.44;5116530;28;20452;-60
2022/05/23 06:15:25;;;;;;;6.05;1.35;;;;;;;27.22;26.15;95856.38;5116199;28;20028;-61
2022/05/23 06:17:52;;;;;;;8.35;1.10;;;;;;;27.08;25.93;95858.84;5116147;28;20020;-60
2022/05/23 06:20:19;;;;;;;5.18;1.27;;;;;;;27.29;25.82;95860.00;5116024;28;20484;-61
2022/05/23 06:22:46;;;;;;;3.05;1.02;;;;;;;27.51;28.57;95860.16;5114656;28;20035;-61
2022/05/23 06:25:15;;;;;;;2.65;1.20;;;;;;;27.67;26.51;95863.75;5115816;28;20065;-60
2022/05/23 06:27:41;;;;;;;4.30;1.25;;;;;;;27.57;26.91;95863.97;5115207;28;20020;-60
2022/05/23 06:30:09;;;;;;;6.00;1.02;;;;;;;27.84;25.37;95864.41;5115513;28;20091;-61
2022/05/23 06:32:36;;;;;;;4.68;1.20;;;;;;;28.00;25.40;95863.41;5115760;28;20070;-61
2022/05/23 06:35:02;;;;;;;2.85;1.20;;;;;;;28.29;26.90;95856.34;5115760;28;20024;-60
2022/05/23 06:37:28;;;;;;;5.07;1.15;;;;;;;28.73;23.59;95849.22;5115669;28;20088;-61
2022/05/23 06:39:54;;;;;;;4.07;1.15;;;;;;;28.92;24.40;95863.06;5115726;28;20114;-61
2022/05/23 06:42:20;;;;;;;5.53;1.00;;;;;;;29.06;26.23;95860.53;5115625;28;20116;-61
2022/05/23 06:44:46;;;;;;;4.32;1.35;;;;;;;29.04;23.45;95863.44;5115652;28;20027;-60
2022/05/23 06:47:11;;;;;;;5.10;1.35;;;;;;;29.01;23.32;95861.13;5115559;28;20464;-61
2022/05/23 06:49:37;;;;;;;3.50;1.20;;;;;;;29.19;22.94;95849.91;5115387;28;20049;-60
2022/05/23 06:52:03;;;;;;;2.38;1.00;;;;;;;29.32;22.04;95859.13;5115299;28;20084;-60
2022/05/23 06:54:29;;;;;;;2.63;1.00;;;;;;;29.41;22.94;95859.84;5115515;28;20024;-62
2022/05/23 06:56:55;;;;;;;5.22;0.93;;;;;;;29.22;23.03;95851.38;5115416;28;20384;-60
2022/05/23 06:59:21;;;;;;;3.78;1.08;;;;;;;28.91;24.05;95855.19;5115225;28;20489;-61
2022/05/23 07:01:47;;;;;;;1.38;0.90;;;;;;;28.51;24.15;95851.06;5115001;28;20038;-62
2022/05/23 07:04:13;;;;;;;5.35;1.23;;;;;;;28.72;24.84;95854.81;5115127;28;20062;-60
2022/05/23 07:12:20;;;;;;;4.80;1.10;;;;;;;28.77;23.34;95849.66;5115076;28;20043;-62
2022/05/23 07:14:47;;;;;;;2.67;1.30;;;;;;;28.78;24.20;95848.66;5114953;28;20024;-61
2022/05/23 07:17:14;;;;;;;2.78;0.90;;;;;;;28.72;22.50;95857.50;5114854;28;20019;-62
2022/05/23 07:19:40;;;;;;;2.78;1.35;;;;;;;28.91;24.87;95858.72;5114791;28;20019;-61
2022/05/23 07:22:06;;;;;;;2.03;0.95;;;;;;;29.14;22.72;95855.06;5114757;28;20024;-62
2022/05/23 07:24:32;;;;;;;4.25;1.10;;;;;;;29.10;24.01;95856.44;5113412;28;20115;-61
2022/05/23 07:26:59;;;;;;;1.27;0.80;;;;;;;29.21;22.65;95863.16;5114855;28;20035;-61
2022/05/23 07:29:25;;;;;;;4.93;0.93;;;;;;;29.13;22.67;95856.06;5114620;28;20039;-61
2022/05/23 07:31:52;;;;;;;3.22;1.00;;;;;;;28.67;21.62;95866.13;5114549;28;20459;-62
2022/05/23 07:34:19;;;;;;;2.72;0.80;;;;;;;28.45;23.06;95859.88;5114632;28;20020;-62
2022/05/23 07:36:47;;;;;;;2.80;1.15;;;;;;;28.45;23.87;95868.78;5114461;28;20047;-59
2022/05/23 07:39:14;;;;;;;4.70;1.20;;;;;;;28.33;23.38;95868.44;5112311;28;20441;-61
2022/05/23 07:41:41;;;;;;;9.55;1.40;;;;;;;28.53;22.64;95861.63;5114330;28;20074;-62
2022/05/23 07:44:09;;;;;;;2.50;1.17;;;;;;;28.67;23.78;95859.91;5114322;28;20072;-62
2022/05/23 07:46:35;;;;;;;10.38;1.50;;;;;;;28.84;24.56;95865.91;5114353;28;20148;-62
2022/05/23 07:49:02;;;;;;;4.40;1.00;;;;;;;29.26;22.23;95868.81;5114409;28;20022;-60
2022/05/23 07:51:30;;;;;;;6.57;1.15;;;;;;;29.59;23.16;95857.50;5114313;28;20031;-62
2022/05/23 08:02:13;;;;;;;8.80;1.00;;;;;;;29.19;22.49;95857.97;5114085;28;20042;-61
2022/05/23 08:04:39;;;;;;;1.73;0.88;;;;;;;29.40;23.13;95856.28;5113973;28;20451;-60
2022/05/23 08:07:07;;;;;;;3.63;1.20;;;;;;;29.46;22.51;95860.91;5113938;28;20023;-62
2022/05/23 08:09:33;;;;;;;3.88;1.30;;;;;;;29.10;22.37;95859.97;5113785;28;20469;-61
2022/05/23 08:11:59;;;;;;;5.13;1.25;;;;;;;29.33;21.58;95856.25;5113810;28;20434;-62
2022/05/23 08:14:25;;;;;;;1.55;0.90;;;;;;;29.46;21.93;95857.38;5113846;28;20106;-62
2022/05/23 08:16:51;;;;;;;2.22;1.10;;;;;;;29.42;22.26;95856.09;5113787;28;20505;-61
2022/05/23 08:19:17;;;;;;;3.83;1.40;;;;;;;29.29;23.41;95859.53;5113839;28;20107;-62
2022/05/23 08:21:48;;;;;;;5.28;1.23;;;;;;;29.43;21.25;95857.78;5113819;28;20035;-62
2022/05/23 08:24:15;;;;;;;3.17;1.30;;;;;;;29.45;23.06;95856.56;5113840;28;20058;-63
2022/05/23 08:26:40;;;;;;;9.05;1.52;;;;;;;29.32;21.54;95848.38;5113691;28;20027;-62
2022/05/23 08:29:06;;;;;;;4.00;1.33;;;;;;;29.24;23.65;95852.88;5113631;28;20023;-62
2022/05/23 08:31:32;;;;;;;2.95;1.05;;;;;;;28.98;22.00;95846.19;5113575;28;20035;-62
2022/05/23 08:33:58;;;;;;;2.20;1.10;;;;;;;29.08;22.36;95847.75;5113620;28;20419;-60
2022/05/23 08:36:23;;;;;;;6.30;1.40;;;;;;;28.76;23.68;95850.69;5113621;28;20028;-62
2022/05/23 08:38:49;;;;;;;3.10;1.02;;;;;;;28.97;23.68;95846.38;5113610;28;20115;-63
2022/05/23 08:41:15;;;;;;;3.17;1.02;;;;;;;29.11;22.71;95852.75;5113383;28;20027;-63
2022/05/23 08:43:49;;;;;;;1.13;0.80;;;;;;;29.07;24.18;95841.53;5113640;28;20027;-63
2022/05/23 08:46:25;;;;;;;2.13;1.00;;;;;;;29.00;23.14;95841.47;5113541;28;20032;-63
2022/05/23 08:49:02;;;;;;;3.70;1.15;;;;;;;28.34;22.51;95843.19;5113740;28;20069;-60
2022/05/23 08:51:41;;;;;;;5.03;1.52;;;;;;;28.43;23.58;95846.63;5117823;28;20432;-60
2022/05/23 08:54:21;;;;;;;3.08;1.08;;;;;;;28.13;23.20;95846.63;5117690;28;20024;-62
2022/05/23 08:56:58;;;;;;;4.47;1.20;;;;;;;27.79;22.85;95854.22;5116398;28;20023;-61
2022/05/23 08:59:29;;;;;;;2.65;1.27;;;;;;;27.69;22.56;95848.28;5117615;28;20451;-63
2022/05/23 09:01:58;;;;;;;;;;;;;;;27.96;23.38;95848.69;5117750;28;20059;-60
2022/05/23 09:04:37;;;;;;;1.95;0.90;;;;;;;27.79;22.27;95843.47;5117490;28;20399;-60
2022/05/23 09:07:06;;;;;;;5.28;1.08;;;;;;;27.66;23.58;95843.28;5117517;28;20084;-61
2022/05/23 09:09:34;;;;;;;3.63;1.10;;;;;;;27.58;25.92;95842.31;5117355;28;20024;-62
2022/05/23 09:12:09;;;;;;;2.17;1.00;;;;;;;27.40;25.12;95847.19;5117338;28;20028;-59
2022/05/23 09:14:35;;;;;;;3.90;1.05;;;;;;;26.87;25.08;95849.56;5117349;28;20036;-61
2022/05/23 09:17:02;;;;;;;2.35;1.15;;;;;;;26.67;25.97;95835.78;5117228;28;20084;-61
2022/05/23 09:19:51;;;;;;;4.97;1.13;;;;;;;26.22;26.57;95843.53;5117297;28;20073;-63
2022/05/23 09:22:24;;;;;;;1.27;0.80;;;;;;;26.24;26.36;95846.84;5117081;28;20027;-62
2022/05/23 09:24:55;;;;;;;2.15;1.00;;;;;;;26.02;26.41;95832.38;5117161;27;20028;-61
2022/05/23 09:27:28;;;;;;;4.72;1.20;;;;;;;26.04;24.44;95839.25;5117098;28;20089;-61
2022/05/23 09:29:56;;;;;;;2.83;0.80;;;;;;;26.24;26.46;95820.91;5116917;28;20539;-61
2022/05/23 09:32:52;;;;;;;5.10;1.13;;;;;;;26.25;26.33;95814.53;5116984;28;20019;-61
2022/05/23 09:35:39;;;;;;;3.05;1.27;;;;;;;26.42;27.20;95827.03;5108450;28;20579;-60
2022/05/23 09:38:16;;;;;;;2.88;1.10;;;;;;;26.44;26.05;95817.84;5116947;28;20040;-60
2022/05/23 09:40:42;;;;;;;1.85;1.00;;;;;;;26.56;25.52;95820.09;5116881;28;20027;-63
2022/05/23 09:49:12;;;;;;;2.40;1.00;;;;;;;27.00;23.57;95826.72;5117014;28;20089;-61
2022/05/23 09:51:59;;;;;;;3.38;1.20;;;;;;;26.92;26.10;95814.16;5116731;28;20024;-63
2022/05/23 09:54:46;;;;;;;2.30;0.88;;;;;;;26.68;25.52;95820.53;5116515;28;20362;-62
2022/05/23 09:57:24;;;;;;;5.97;1.15;;;;;;;26.70;26.59;95821.19;5116527;28;20042;-61
2022/05/23 10:00:00;;;;;;;3.40;0.95;;;;;;;26.92;24.09;95824.06;5116456;28;20473;-62
2022/05/23 10:02:41;;;;;;;1.20;0.80;;;;;;;27.08;26.43;95826.66;5115244;28;20036;-61
2022/05/23 10:05:26;;;;;;;2.25;1.13;;;;;;;27.17;23.73;95813.16;5116307;28;20011;-62
2022/05/23 10:07:56;;;;;;;3.80;1.10;;;;;;;27.26;23.31;95809.38;5116342;28;20023;-63
2022/05/23 10:10:30;;;;;;;1.98;0.85;;;;;;;27.33;25.25;95815.69;5116133;27;20421;-62
2022/05/23 10:13:14;;;;;;;3.67;1.23;;;;;;;27.14;26.65;95824.28;5116316;28;20102;-60
2022/05/23 10:15:47;;;;;;;2.45;1.02;;;;;;;27.15;24.76;95820.56;5116142;28;20031;-62
2022/05/23 10:18:25;;;;;;;0.95;0.70;;;;;;;27.24;23.20;95806.88;5116280;28;20019;-60
2022/05/23 10:20:51;;;;;;;3.38;1.10;;;;;;;27.46;24.70;95800.81;5116092;28;20023;-61
2022/05/23 10:23:22;;;;;;;4.10;0.93;;;;;;;27.59;22.94;95798.34;5116025;28;20035;-63
2022/05/23 10:26:14;;;;;;;3.28;0.77;;;;;;;27.61;23.54;95800.84;5116026;28;20028;-62
2022/05/23 10:29:01;;;;;;;3.55;1.20;;;;;;;27.71;24.46;95798.75;5116125;28;20085;-61
2022/05/23 10:31:56;;;;;;;0.90;0.82;;;;;;;27.77;24.56;95799.84;5115723;28;20432;-64
2022/05/23 10:34:35;;;;;;;3.92;1.20;;;;;;;27.83;24.92;95799.09;5115170;28;20446;-61
2022/05/23 10:37:04;;;;;;;1.92;0.90;;;;;;;27.65;24.07;95785.19;5115726;28;20106;-62
2022/05/23 10:42:19;;;;;;;0.65;0.60;;;;;;;27.87;23.29;95788.81;5115869;28;20117;-62
2022/05/23 10:44:57;;;;;;;6.25;1.10;;;;;;;27.84;26.17;95784.66;5115658;28;20027;-62
2022/05/23 10:47:30;;;;;;;3.03;1.00;;;;;;;28.01;24.90;95789.81;5115637;28;20028;-62
2022/05/23 10:50:02;;;;;;;2.03;0.90;;;;;;;28.15;22.93;95781.94;5115542;28;20028;-61
2022/05/23 10:52:35;;;;;;;4.28;1.10;;;;;;;27.90;22.55;95777.69;5115568;27;20128;-62
2022/05/23 10:55:19;;;;;;;1.60;0.90;;;;;;;27.47;23.90;95779.16;5115392;28;20084;-62
2022/05/23 10:57:47;;;;;;;6.57;1.20;;;;;;;27.38;25.44;95764.16;5115358;28;20035;-61
2022/05/23 11:00:23;;;;;;;3.38;1.05;;;;;;;27.54;24.69;95781.09;5115212;28;20023;-62
2022/05/23 11:03:10;;;;;;;2.78;0.90;;;;;;;27.44;22.26;95768.78;5114082;28;20027;-62
2022/05/23 11:05:50;;;;;;;2.13;0.90;;;;;;;27.31;23.30;95766.75;5115208;28;20551;-62
2022/05/23 11:08:39;;;;;;;5.35;0.98;;;;;;;27.17;24.57;95773.75;5115177;27;20032;-61
2022/05/23 11:11:18;;;;;;;6.38;1.10;;;;;;;27.45;25.21;95764.25;5115023;28;20028;-61
2022/05/23 11:14:16;;;;;;;2.85;1.00;;;;;;;27.83;25.85;95760.66;5114779;27;20020;-62
2022/05/23 11:16:47;;;;;;;3.50;0.85;;;;;;;28.00;23.44;95761.31;5115004;28;20047;-62
2022/05/23 11:19:34;;;;;;;1.60;0.80;;;;;;;27.82;24.71;95756.31;5114820;28;20500;-62
2022/05/23 11:22:03;;;;;;;3.45;0.88;;;;;;;27.90;22.52;95758.06;5114750;28;20034;-61
2022/05/23 11:24:55;;;;;;;1.98;1.00;;;;;;;27.97;22.30;95750.94;5114789;28;20015;-61
2022/05/23 11:33:50;;;;;;;1.23;0.93;;;;;;;27.87;20.31;95738.63;5114946;28;20045;-61
2022/05/23 11:36:24;;;;;;;4.65;1.00;;;;;;;27.54;22.67;95736.28;5114496;28;20019;-60
2022/05/23 11:38:52;;;;;;;1.27;0.98;;;;;;;27.43;22.08;95734.06;5114630;28;20036;-60
2022/05/23 11:41:39;;;;;;;2.88;0.95;;;;;;;27.48;24.35;95734.38;5114369;28;20068;-63
2022/05/23 11:44:44;;;;;;;1.92;1.10;;;;;;;27.77;22.13;95740.75;5114448;28;20035;-61
2022/05/23 11:47:44;;;;;;;2.13;0.95;;;;;;;27.76;22.35;95733.72;5031675;28;20041;-61
2022/05/23 11:50:28;;;;;;;1.90;1.08;;;;;;;27.73;21.96;95729.56;5114289;28;20481;-62
2022/05/23 11:53:10;;;;;;;1.52;0.80;;;;;;;27.73;22.42;95731.41;5114482;28;20106;-61
2022/05/23 11:55:51;;;;;;;4.60;1.00;;;;;;;27.80;23.80;95728.78;5114176;28;20026;-61
2022/05/23 11:58:44;;;;;;;1.98;0.93;;;;;;;27.70;22.02;95719.19;5114141;28;20042;-61
2022/05/23 12:01:15;;;;;;;8.32;0.90;;;;;;;27.73;22.89;95726.03;5114071;28;20034;-61
2022/05/23 12:04:05;;;;;;;4.15;0.70;;;;;;;27.83;24.13;95718.53;5114129;28;20019;-61
2022/05/23 12:06:32;;;;;;;6.95;1.08;;;;;;;27.59;22.84;95723.16;5103452;28;20039;-63
2022/05/23 12:08:57;;;;;;;1.92;0.93;;;;;;;27.66;24.24;95712.50;5114048;28;20035;-61
2022/05/23 12:11:37;;;;;;;1.42;1.00;;;;;;;27.43;22.02;95716.13;5114051;28;20351;-61
2022/05/23 12:14:12;;;;;;;0.93;0.70;;;;;;;27.45;22.56;95711.38;5113923;28;20028;-60
2022/05/23 12:16:54;;;;;;;1.02;0.80;;;;;;;27.53;22.54;95718.50;5113971;28;20016;-62
2022/05/23 12:19:32;;;;;;;3.00;1.25;;;;;;;27.43;23.08;95710.75;5114008;28;20027;-62
2022/05/23 12:22:18;;;;;;;5.07;0.90;;;;;;;27.21;23.36;95704.44;5113780;28;20089;-62
2022/05/23 12:25:16;;;;;;;2.47;0.73;;;;;;;27.25;24.23;95714.63;5113337;28;20473;-61
2022/05/23 12:27:45;;;;;;;3.75;1.00;;;;;;;27.43;22.99;95712.59;5098048;28;20036;-62
2022/05/23 12:30:17;;;;;;;4.75;0.75;;;;;;;27.59;22.72;95711.56;5113344;28;20476;-60
2022/05/23 12:32:47;;;;;;;2.17;0.95;;;;;;;27.72;24.85;95705.59;5113704;28;20028;-63
2022/05/23 12:35:15;;;;;;;2.08;0.90;;;;;;;27.69;21.88;95714.00;5113681;28;20027;-62
2022/05/23 12:38:18;;;;;;;1.63;0.75;;;;;;;27.55;23.04;95712.97;5113580;28;20048;-63
2022/05/23 12:40:47;;;;;;;2.83;0.70;;;;;;;27.65;23.46;95712.69;5100579;28;20043;-61
2022/05/23 12:43:28;;;;;;;2.50;0.67;;;;;;;27.57;23.10;95716.31;5113578;28;20046;-60